sensor_id;sensor_type;location;lat;lon;timestamp;temperature;humidity
24085;DHT22;12268;52.110;5.548;2022-12-18T00:01:49;0.70;99.90
24085;DHT22;12268;52.110;5.548;2022-12-18T00:04:21;0.70;99.90
24085;DHT22;12268;52.110;5.548;2022-12-18T00:06:47;0.70;99.90
24085;DHT22;12268;52.110;5.548;2022-12-18T00:09:13;0.60;99.90
24085;DHT22;12268;52.110;5.548;2022-12-18T00:11:38;0.70;99.90
24085;DHT22;12268;52.110;5.548;2022-12-18T00:14:04;0.50;99.90
24085;DHT22;12268;52.110;5.548;2022-12-18T00:16:30;0.60;99.90
24085;DHT22;12268;52.110;5.548;2022-12-18T00:18:59;0.70;99.90
24085;DHT22;12268;52.110;5.548;2022-12-18T00:21:25;0.80;99.90
24085;DHT22;12268;52.110;5.548;2022-12-18T00:23:52;0.60;99.90
24085;DHT22;12268;52.110;5.548;2022-12-18T00:28:44;0.70;99.90
24085;DHT22;12268;52.110;5.548;2022-12-18T00:31:13;0.70;99.90
24085;DHT22;12268;52.110;5.548;2022-12-18T00:33:39;0.70;99.90
24085;DHT22;12268;52.110;5.548;2022-12-18T00:36:07;0.80;99.90
24085;DHT22;12268;52.110;5.548;2022-12-18T00:38:34;0.80;99.90
24085;DHT22;12268;52.110;5.548;2022-12-18T00:41:00;0.80;99.90
24085;DHT22;12268;52.110;5.548;2022-12-18T00:43:26;0.70;99.90
24085;DHT22;12268;52.110;5.548;2022-12-18T00:45:51;0.80;99.90
24085;DHT22;12268;52.110;5.548;2022-12-18T00:48:17;0.90;99.90
24085;DHT22;12268;52.110;5.548;2022-12-18T00:50:42;0.70;99.90
24085;DHT22;12268;52.110;5.548;2022-12-18T00:53:09;0.50;99.90
24085;DHT22;12268;52.110;5.548;2022-12-18T00:55:35;0.50;99.90
24085;DHT22;12268;52.110;5.548;2022-12-18T00:58:02;0.50;99.90
24085;DHT22;12268;52.110;5.548;2022-12-18T01:00:27;0.50;99.90
24085;DHT22;12268;52.110;5.548;2022-12-18T01:02:53;0.30;99.90
24085;DHT22;12268;52.110;5.548;2022-12-18T01:05:18;0.30;99.90
24085;DHT22;12268;52.110;5.548;2022-12-18T01:07:44;0.50;99.90
24085;DHT22;12268;52.110;5.548;2022-12-18T01:10:12;0.60;99.90
24085;DHT22;12268;52.110;5.548;2022-12-18T01:12:38;0.60;99.90
24085;DHT22;12268;52.110;5.548;2022-12-18T01:15:05;0.70;99.90
24085;DHT22;12268;52.110;5.548;2022-12-18T01:17:31;0.60;99.90
24085;DHT22;12268;52.110;5.548;2022-12-18T01:19:57;0.60;99.90
24085;DHT22;12268;52.110;5.548;2022-12-18T01:22:22;0.50;99.90
24085;DHT22;12268;52.110;5.548;2022-12-18T01:24:48;0.50;99.90
24085;DHT22;12268;52.110;5.548;2022-12-18T01:27:14;0.50;99.90
24085;DHT22;12268;52.110;5.548;2022-12-18T01:29:39;0.60;99.90
24085;DHT22;12268;52.110;5.548;2022-12-18T01:32:05;0.50;99.90
24085;DHT22;12268;52.110;5.548;2022-12-18T01:34:30;0.50;99.90
24085;DHT22;12268;52.110;5.548;2022-12-18T01:36:57;0.40;99.90
24085;DHT22;12268;52.110;5.548;2022-12-18T01:39:22;0.40;99.90
24085;DHT22;12268;52.110;5.548;2022-12-18T01:41:48;0.40;99.90
24085;DHT22;12268;52.110;5.548;2022-12-18T01:44:55;0.30;99.90
24085;DHT22;12268;52.110;5.548;2022-12-18T01:49:52;0.10;99.90
24085;DHT22;12268;52.110;5.548;2022-12-18T01:52:19;0.00;99.90
24085;DHT22;12268;52.110;5.548;2022-12-18T01:54:46;0.00;99.90
24085;DHT22;12268;52.110;5.548;2022-12-18T01:57:12;0.00;99.90
24085;DHT22;12268;52.110;5.548;2022-12-18T01:59:38;-0.10;99.90
24085;DHT22;12268;52.110;5.548;2022-12-18T02:02:04;-0.20;99.90
24085;DHT22;12268;52.110;5.548;2022-12-18T02:04:30;-0.20;99.90
24085;DHT22;12268;52.110;5.548;2022-12-18T02:09:38;-0.30;99.90
24085;DHT22;12268;52.110;5.548;2022-12-18T02:12:16;-0.40;99.90
24085;DHT22;12268;52.110;5.548;2022-12-18T02:14:52;-0.30;99.90
24085;DHT22;12268;52.110;5.548;2022-12-18T02:17:23;-0.50;99.90
24085;DHT22;12268;52.110;5.548;2022-12-18T02:19:58;-0.50;99.90
24085;DHT22;12268;52.110;5.548;2022-12-18T02:23:02;-0.50;99.90
24085;DHT22;12268;52.110;5.548;2022-12-18T02:28:31;-0.40;99.90
24085;DHT22;12268;52.110;5.548;2022-12-18T02:31:00;-0.40;99.90
24085;DHT22;12268;52.110;5.548;2022-12-18T02:33:28;-0.50;99.90
24085;DHT22;12268;52.110;5.548;2022-12-18T02:35:57;-0.50;99.90
24085;DHT22;12268;52.110;5.548;2022-12-18T02:38:23;-0.50;99.90
24085;DHT22;12268;52.110;5.548;2022-12-18T02:40:51;-0.60;99.90
24085;DHT22;12268;52.110;5.548;2022-12-18T02:43:18;-0.60;99.90
24085;DHT22;12268;52.110;5.548;2022-12-18T02:45:53;-0.60;99.90
24085;DHT22;12268;52.110;5.548;2022-12-18T02:48:24;-0.60;99.90
24085;DHT22;12268;52.110;5.548;2022-12-18T02:51:35;-0.70;99.90
24085;DHT22;12268;52.110;5.548;2022-12-18T02:53:53;-0.70;99.90
24085;DHT22;12268;52.110;5.548;2022-12-18T02:56:26;-0.70;99.90
24085;DHT22;12268;52.110;5.548;2022-12-18T02:59:06;-0.60;99.90
24085;DHT22;12268;52.110;5.548;2022-12-18T03:01:43;-0.70;99.90
24085;DHT22;12268;52.110;5.548;2022-12-18T03:04:18;-0.90;99.90
24085;DHT22;12268;52.110;5.548;2022-12-18T03:06:50;-0.90;99.90
24085;DHT22;12268;52.110;5.548;2022-12-18T03:09:48;-1.00;99.90
24085;DHT22;12268;52.110;5.548;2022-12-18T03:12:27;-0.90;99.90
24085;DHT22;12268;52.110;5.548;2022-12-18T03:15:18;-1.00;99.90
24085;DHT22;12268;52.110;5.548;2022-12-18T03:17:49;-1.10;99.90
24085;DHT22;12268;52.110;5.548;2022-12-18T03:20:19;-1.10;99.90
24085;DHT22;12268;52.110;5.548;2022-12-18T03:22:50;-1.10;99.90
24085;DHT22;12268;52.110;5.548;2022-12-18T03:25:17;-1.10;99.90
24085;DHT22;12268;52.110;5.548;2022-12-18T03:27:47;-1.10;99.90
24085;DHT22;12268;52.110;5.548;2022-12-18T03:30:14;-1.10;99.90
24085;DHT22;12268;52.110;5.548;2022-12-18T03:32:50;-1.10;99.90
24085;DHT22;12268;52.110;5.548;2022-12-18T03:35:21;-1.20;99.90
24085;DHT22;12268;52.110;5.548;2022-12-18T03:37:47;-1.10;99.90
24085;DHT22;12268;52.110;5.548;2022-12-18T03:40:13;-1.20;99.90
24085;DHT22;12268;52.110;5.548;2022-12-18T03:42:48;-1.10;99.90
24085;DHT22;12268;52.110;5.548;2022-12-18T03:45:32;-1.10;99.90
24085;DHT22;12268;52.110;5.548;2022-12-18T03:48:08;-1.10;99.90
24085;DHT22;12268;52.110;5.548;2022-12-18T03:50:46;-1.10;99.90
24085;DHT22;12268;52.110;5.548;2022-12-18T03:53:40;-1.30;99.90
24085;DHT22;12268;52.110;5.548;2022-12-18T03:56:10;-1.30;99.90
24085;DHT22;12268;52.110;5.548;2022-12-18T03:58:38;-1.30;99.90
24085;DHT22;12268;52.110;5.548;2022-12-18T04:01:07;-1.20;99.90
24085;DHT22;12268;52.110;5.548;2022-12-18T04:03:34;-1.30;99.90
24085;DHT22;12268;52.110;5.548;2022-12-18T04:06:01;-1.30;99.90
24085;DHT22;12268;52.110;5.548;2022-12-18T04:08:28;-1.20;99.90
24085;DHT22;12268;52.110;5.548;2022-12-18T04:10:54;-1.10;99.90
24085;DHT22;12268;52.110;5.548;2022-12-18T04:13:25;-1.10;99.90
24085;DHT22;12268;52.110;5.548;2022-12-18T04:15:52;-1.20;99.90
24085;DHT22;12268;52.110;5.548;2022-12-18T04:18:18;-1.30;99.90
24085;DHT22;12268;52.110;5.548;2022-12-18T04:20:43;-1.30;99.90
24085;DHT22;12268;52.110;5.548;2022-12-18T04:23:09;-1.30;99.90
24085;DHT22;12268;52.110;5.548;2022-12-18T04:25:34;-1.40;99.90
24085;DHT22;12268;52.110;5.548;2022-12-18T04:28:00;-1.50;99.90
24085;DHT22;12268;52.110;5.548;2022-12-18T04:30:25;-1.40;99.90
24085;DHT22;12268;52.110;5.548;2022-12-18T04:32:51;-1.40;99.90
24085;DHT22;12268;52.110;5.548;2022-12-18T04:35:16;-1.50;99.90
24085;DHT22;12268;52.110;5.548;2022-12-18T04:37:42;-1.70;99.90
24085;DHT22;12268;52.110;5.548;2022-12-18T04:40:08;-1.50;99.90
24085;DHT22;12268;52.110;5.548;2022-12-18T04:42:33;-1.50;99.90
24085;DHT22;12268;52.110;5.548;2022-12-18T04:44:59;-1.40;99.90
24085;DHT22;12268;52.110;5.548;2022-12-18T04:47:24;-1.40;99.90
24085;DHT22;12268;52.110;5.548;2022-12-18T04:49:50;-1.50;99.90
24085;DHT22;12268;52.110;5.548;2022-12-18T04:52:15;-1.40;99.90
24085;DHT22;12268;52.110;5.548;2022-12-18T04:54:41;-1.40;99.90
24085;DHT22;12268;52.110;5.548;2022-12-18T04:57:06;-1.50;99.90
24085;DHT22;12268;52.110;5.548;2022-12-18T04:59:32;-1.50;99.90
24085;DHT22;12268;52.110;5.548;2022-12-18T05:01:57;-1.50;99.90
24085;DHT22;12268;52.110;5.548;2022-12-18T05:04:23;-1.50;99.90
24085;DHT22;12268;52.110;5.548;2022-12-18T05:06:48;-1.50;99.90
24085;DHT22;12268;52.110;5.548;2022-12-18T05:09:14;-1.50;99.90
24085;DHT22;12268;52.110;5.548;2022-12-18T05:11:39;-1.50;99.90
24085;DHT22;12268;52.110;5.548;2022-12-18T05:14:05;-1.50;99.90
24085;DHT22;12268;52.110;5.548;2022-12-18T05:16:30;-1.60;99.90
24085;DHT22;12268;52.110;5.548;2022-12-18T05:18:56;-1.60;99.90
24085;DHT22;12268;52.110;5.548;2022-12-18T05:21:22;-1.60;99.90
24085;DHT22;12268;52.110;5.548;2022-12-18T05:23:47;-1.60;99.90
24085;DHT22;12268;52.110;5.548;2022-12-18T05:26:17;-1.50;99.90
24085;DHT22;12268;52.110;5.548;2022-12-18T05:28:42;-1.40;99.90
24085;DHT22;12268;52.110;5.548;2022-12-18T05:31:09;-1.50;99.90
24085;DHT22;12268;52.110;5.548;2022-12-18T05:33:35;-1.60;99.90
24085;DHT22;12268;52.110;5.548;2022-12-18T05:36:02;-1.60;99.90
24085;DHT22;12268;52.110;5.548;2022-12-18T05:38:29;-1.60;99.90
24085;DHT22;12268;52.110;5.548;2022-12-18T05:40:56;-1.60;99.90
24085;DHT22;12268;52.110;5.548;2022-12-18T05:43:22;-1.50;99.90
24085;DHT22;12268;52.110;5.548;2022-12-18T05:45:48;-1.50;99.90
24085;DHT22;12268;52.110;5.548;2022-12-18T05:48:15;-1.70;99.90
24085;DHT22;12268;52.110;5.548;2022-12-18T05:50:42;-1.90;99.90
24085;DHT22;12268;52.110;5.548;2022-12-18T05:53:09;-1.90;99.90
24085;DHT22;12268;52.110;5.548;2022-12-18T05:55:35;-1.80;99.90
24085;DHT22;12268;52.110;5.548;2022-12-18T05:58:02;-1.80;99.90
24085;DHT22;12268;52.110;5.548;2022-12-18T06:00:28;-1.60;99.90
24085;DHT22;12268;52.110;5.548;2022-12-18T06:02:54;-1.60;99.90
24085;DHT22;12268;52.110;5.548;2022-12-18T06:05:19;-1.80;99.90
24085;DHT22;12268;52.110;5.548;2022-12-18T06:07:45;-1.70;99.90
24085;DHT22;12268;52.110;5.548;2022-12-18T06:10:10;-1.80;99.90
24085;DHT22;12268;52.110;5.548;2022-12-18T06:12:37;-1.80;99.90
24085;DHT22;12268;52.110;5.548;2022-12-18T06:15:02;-1.70;99.90
24085;DHT22;12268;52.110;5.548;2022-12-18T06:17:32;-1.70;99.90
24085;DHT22;12268;52.110;5.548;2022-12-18T06:19:58;-1.70;99.90
24085;DHT22;12268;52.110;5.548;2022-12-18T06:22:24;-1.60;99.90
24085;DHT22;12268;52.110;5.548;2022-12-18T06:24:50;-1.60;99.90
24085;DHT22;12268;52.110;5.548;2022-12-18T06:27:15;-1.70;99.90
24085;DHT22;12268;52.110;5.548;2022-12-18T06:29:41;-1.60;99.90
24085;DHT22;12268;52.110;5.548;2022-12-18T06:32:07;-1.60;99.90
24085;DHT22;12268;52.110;5.548;2022-12-18T06:34:33;-1.60;99.90
24085;DHT22;12268;52.110;5.548;2022-12-18T06:36:59;-1.50;99.90
24085;DHT22;12268;52.110;5.548;2022-12-18T06:39:27;-1.50;99.90
24085;DHT22;12268;52.110;5.548;2022-12-18T06:41:52;-1.50;99.90
24085;DHT22;12268;52.110;5.548;2022-12-18T06:44:18;-1.60;99.90
24085;DHT22;12268;52.110;5.548;2022-12-18T06:46:44;-1.60;99.90
24085;DHT22;12268;52.110;5.548;2022-12-18T06:49:09;-1.60;99.90
24085;DHT22;12268;52.110;5.548;2022-12-18T06:51:35;-1.70;99.90
24085;DHT22;12268;52.110;5.548;2022-12-18T06:54:01;-1.70;99.90
24085;DHT22;12268;52.110;5.548;2022-12-18T06:56:26;-1.60;99.90
24085;DHT22;12268;52.110;5.548;2022-12-18T06:58:52;-1.60;99.90
24085;DHT22;12268;52.110;5.548;2022-12-18T07:01:18;-1.50;99.90
24085;DHT22;12268;52.110;5.548;2022-12-18T07:03:43;-1.50;99.90
24085;DHT22;12268;52.110;5.548;2022-12-18T07:06:18;-1.50;99.90
24085;DHT22;12268;52.110;5.548;2022-12-18T07:08:45;-1.60;99.90
24085;DHT22;12268;52.110;5.548;2022-12-18T07:11:11;-1.60;99.90
24085;DHT22;12268;52.110;5.548;2022-12-18T07:13:36;-1.60;99.90
24085;DHT22;12268;52.110;5.548;2022-12-18T07:16:16;-1.50;99.90
24085;DHT22;12268;52.110;5.548;2022-12-18T07:18:42;-1.40;99.90
24085;DHT22;12268;52.110;5.548;2022-12-18T07:21:11;-1.30;99.90
24085;DHT22;12268;52.110;5.548;2022-12-18T07:23:37;-1.20;99.90
24085;DHT22;12268;52.110;5.548;2022-12-18T07:26:06;-1.20;99.90
24085;DHT22;12268;52.110;5.548;2022-12-18T07:28:34;-1.20;99.90
24085;DHT22;12268;52.110;5.548;2022-12-18T07:31:04;-1.10;99.90
24085;DHT22;12268;52.110;5.548;2022-12-18T07:33:32;-1.10;99.90
24085;DHT22;12268;52.110;5.548;2022-12-18T07:36:05;-1.30;99.90
24085;DHT22;12268;52.110;5.548;2022-12-18T07:38:31;-1.40;99.90
24085;DHT22;12268;52.110;5.548;2022-12-18T07:41:05;-1.40;99.90
24085;DHT22;12268;52.110;5.548;2022-12-18T07:43:31;-1.30;99.90
24085;DHT22;12268;52.110;5.548;2022-12-18T07:45:57;-1.20;99.90
24085;DHT22;12268;52.110;5.548;2022-12-18T07:48:22;-1.20;99.90
24085;DHT22;12268;52.110;5.548;2022-12-18T07:50:48;-1.20;99.90
24085;DHT22;12268;52.110;5.548;2022-12-18T07:53:14;-1.40;99.90
24085;DHT22;12268;52.110;5.548;2022-12-18T07:55:43;-1.20;99.90
24085;DHT22;12268;52.110;5.548;2022-12-18T07:58:08;-1.20;99.90
24085;DHT22;12268;52.110;5.548;2022-12-18T08:00:34;-1.00;99.90
24085;DHT22;12268;52.110;5.548;2022-12-18T08:03:01;-0.80;99.90
24085;DHT22;12268;52.110;5.548;2022-12-18T08:05:27;-0.80;99.90
24085;DHT22;12268;52.110;5.548;2022-12-18T08:07:53;-0.70;99.90
24085;DHT22;12268;52.110;5.548;2022-12-18T08:10:20;-0.50;99.90
24085;DHT22;12268;52.110;5.548;2022-12-18T08:12:49;-0.50;99.90
24085;DHT22;12268;52.110;5.548;2022-12-18T08:15:14;-0.40;99.90
24085;DHT22;12268;52.110;5.548;2022-12-18T08:17:40;-0.40;99.90
24085;DHT22;12268;52.110;5.548;2022-12-18T08:20:06;-0.30;99.90
24085;DHT22;12268;52.110;5.548;2022-12-18T08:22:36;-0.40;99.90
24085;DHT22;12268;52.110;5.548;2022-12-18T08:25:03;-0.50;99.90
24085;DHT22;12268;52.110;5.548;2022-12-18T08:27:29;-0.40;99.90
24085;DHT22;12268;52.110;5.548;2022-12-18T08:29:55;-0.10;99.90
24085;DHT22;12268;52.110;5.548;2022-12-18T08:32:20;0.10;99.90
24085;DHT22;12268;52.110;5.548;2022-12-18T08:34:46;0.30;99.90
24085;DHT22;12268;52.110;5.548;2022-12-18T08:37:11;0.60;99.90
24085;DHT22;12268;52.110;5.548;2022-12-18T08:39:37;0.60;99.90
24085;DHT22;12268;52.110;5.548;2022-12-18T08:42:02;0.60;99.90
24085;DHT22;12268;52.110;5.548;2022-12-18T08:44:47;0.80;99.90
24085;DHT22;12268;52.110;5.548;2022-12-18T08:47:12;0.90;99.90
24085;DHT22;12268;52.110;5.548;2022-12-18T08:49:38;1.00;99.90
24085;DHT22;12268;52.110;5.548;2022-12-18T08:52:03;1.20;99.90
24085;DHT22;12268;52.110;5.548;2022-12-18T08:54:29;1.30;99.90
24085;DHT22;12268;52.110;5.548;2022-12-18T08:56:55;1.40;99.90
24085;DHT22;12268;52.110;5.548;2022-12-18T08:59:20;1.50;99.90
24085;DHT22;12268;52.110;5.548;2022-12-18T09:01:47;1.60;99.90
24085;DHT22;12268;52.110;5.548;2022-12-18T09:04:13;1.50;99.90
24085;DHT22;12268;52.110;5.548;2022-12-18T09:06:39;1.70;99.90
24085;DHT22;12268;52.110;5.548;2022-12-18T09:09:06;1.80;99.90
24085;DHT22;12268;52.110;5.548;2022-12-18T09:11:32;1.90;99.90
24085;DHT22;12268;52.110;5.548;2022-12-18T09:13:59;2.10;99.90
24085;DHT22;12268;52.110;5.548;2022-12-18T09:16:26;2.30;99.90
24085;DHT22;12268;52.110;5.548;2022-12-18T09:18:54;2.20;99.90
24085;DHT22;12268;52.110;5.548;2022-12-18T09:21:25;2.30;99.90
24085;DHT22;12268;52.110;5.548;2022-12-18T09:23:52;2.40;99.90
24085;DHT22;12268;52.110;5.548;2022-12-18T09:26:19;2.70;99.90
24085;DHT22;12268;52.110;5.548;2022-12-18T09:28:45;2.90;99.90
24085;DHT22;12268;52.110;5.548;2022-12-18T09:31:12;2.70;99.90
24085;DHT22;12268;52.110;5.548;2022-12-18T09:33:38;2.70;99.90
24085;DHT22;12268;52.110;5.548;2022-12-18T09:36:06;2.90;99.90
24085;DHT22;12268;52.110;5.548;2022-12-18T09:38:32;3.00;99.90
24085;DHT22;12268;52.110;5.548;2022-12-18T09:41:03;3.10;99.90
24085;DHT22;12268;52.110;5.548;2022-12-18T09:43:37;3.20;99.90
24085;DHT22;12268;52.110;5.548;2022-12-18T09:46:11;3.30;99.90
24085;DHT22;12268;52.110;5.548;2022-12-18T09:48:48;3.10;99.90
24085;DHT22;12268;52.110;5.548;2022-12-18T09:51:39;3.20;99.90
24085;DHT22;12268;52.110;5.548;2022-12-18T09:54:12;3.10;99.90
24085;DHT22;12268;52.110;5.548;2022-12-18T09:56:41;3.20;99.90
24085;DHT22;12268;52.110;5.548;2022-12-18T10:01:57;3.10;99.90
24085;DHT22;12268;52.110;5.548;2022-12-18T10:04:23;3.20;99.90
24085;DHT22;12268;52.110;5.548;2022-12-18T10:09:52;2.80;99.90
24085;DHT22;12268;52.110;5.548;2022-12-18T10:12:42;2.90;99.90
24085;DHT22;12268;52.110;5.548;2022-12-18T10:15:22;3.10;99.90
24085;DHT22;12268;52.110;5.548;2022-12-18T10:18:05;3.20;99.90
24085;DHT22;12268;52.110;5.548;2022-12-18T10:20:33;3.50;99.90
24085;DHT22;12268;52.110;5.548;2022-12-18T10:26:10;3.40;99.90
24085;DHT22;12268;52.110;5.548;2022-12-18T10:28:38;3.40;99.90
24085;DHT22;12268;52.110;5.548;2022-12-18T10:31:16;3.30;99.90
24085;DHT22;12268;52.110;5.548;2022-12-18T10:33:42;3.10;99.90
24085;DHT22;12268;52.110;5.548;2022-12-18T10:36:08;3.20;99.90
24085;DHT22;12268;52.110;5.548;2022-12-18T10:38:34;3.20;99.90
24085;DHT22;12268;52.110;5.548;2022-12-18T10:41:00;3.30;99.90
24085;DHT22;12268;52.110;5.548;2022-12-18T10:43:38;3.30;99.90
24085;DHT22;12268;52.110;5.548;2022-12-18T10:48:54;3.50;99.90
24085;DHT22;12268;52.110;5.548;2022-12-18T10:51:31;3.50;99.90
24085;DHT22;12268;52.110;5.548;2022-12-18T10:56:42;3.40;99.90
24085;DHT22;12268;52.110;5.548;2022-12-18T10:59:10;3.60;99.90
24085;DHT22;12268;52.110;5.548;2022-12-18T11:04:31;3.60;99.90
24085;DHT22;12268;52.110;5.548;2022-12-18T11:07:05;3.50;99.90
24085;DHT22;12268;52.110;5.548;2022-12-18T11:09:36;3.70;99.90
24085;DHT22;12268;52.110;5.548;2022-12-18T11:12:05;3.70;99.90
24085;DHT22;12268;52.110;5.548;2022-12-18T11:14:47;3.70;99.90
24085;DHT22;12268;52.110;5.548;2022-12-18T11:17:31;3.80;99.90
24085;DHT22;12268;52.110;5.548;2022-12-18T11:19:59;3.70;99.90
24085;DHT22;12268;52.110;5.548;2022-12-18T11:25:22;3.80;99.90
24085;DHT22;12268;52.110;5.548;2022-12-18T11:27:53;4.00;99.90
24085;DHT22;12268;52.110;5.548;2022-12-18T11:32:48;4.00;99.90
24085;DHT22;12268;52.110;5.548;2022-12-18T11:35:21;3.90;99.90
24085;DHT22;12268;52.110;5.548;2022-12-18T11:37:59;4.00;99.90
24085;DHT22;12268;52.110;5.548;2022-12-18T11:40:35;4.00;99.90
24085;DHT22;12268;52.110;5.548;2022-12-18T11:43:14;4.10;99.90
24085;DHT22;12268;52.110;5.548;2022-12-18T11:45:45;4.30;99.90
24085;DHT22;12268;52.110;5.548;2022-12-18T11:48:30;4.20;99.90
24085;DHT22;12268;52.110;5.548;2022-12-18T11:51:00;4.50;99.90
24085;DHT22;12268;52.110;5.548;2022-12-18T11:53:27;4.60;99.90
24085;DHT22;12268;52.110;5.548;2022-12-18T11:56:29;4.70;99.90
24085;DHT22;12268;52.110;5.548;2022-12-18T11:59:33;4.80;99.90
24085;DHT22;12268;52.110;5.548;2022-12-18T12:05:04;5.10;99.90
24085;DHT22;12268;52.110;5.548;2022-12-18T12:07:37;5.10;99.90
24085;DHT22;12268;52.110;5.548;2022-12-18T12:13:07;5.20;99.90
24085;DHT22;12268;52.110;5.548;2022-12-18T12:23:35;5.30;99.90
24085;DHT22;12268;52.110;5.548;2022-12-18T12:26:07;5.20;99.90
24085;DHT22;12268;52.110;5.548;2022-12-18T12:37:08;4.90;99.90
24085;DHT22;12268;52.110;5.548;2022-12-18T12:39:40;4.90;99.90
24085;DHT22;12268;52.110;5.548;2022-12-18T12:42:18;5.00;99.90
24085;DHT22;12268;52.110;5.548;2022-12-18T12:45:06;4.90;99.90
24085;DHT22;12268;52.110;5.548;2022-12-18T12:47:37;4.80;99.90
24085;DHT22;12268;52.110;5.548;2022-12-18T12:50:13;4.80;99.90
24085;DHT22;12268;52.110;5.548;2022-12-18T12:52:51;4.70;99.90
24085;DHT22;12268;52.110;5.548;2022-12-18T12:55:23;4.80;99.90
24085;DHT22;12268;52.110;5.548;2022-12-18T12:58:24;4.90;99.90
24085;DHT22;12268;52.110;5.548;2022-12-18T13:01:17;5.00;99.90
24085;DHT22;12268;52.110;5.548;2022-12-18T13:03:56;4.70;99.90
24085;DHT22;12268;52.110;5.548;2022-12-18T13:09:03;4.40;99.90
24085;DHT22;12268;52.110;5.548;2022-12-18T13:11:34;4.50;99.90
24085;DHT22;12268;52.110;5.548;2022-12-18T13:14:28;4.60;99.90
24085;DHT22;12268;52.110;5.548;2022-12-18T13:19:43;4.60;99.90
24085;DHT22;12268;52.110;5.548;2022-12-18T13:22:28;4.70;99.90
24085;DHT22;12268;52.110;5.548;2022-12-18T13:24:55;4.90;99.90
24085;DHT22;12268;52.110;5.548;2022-12-18T13:41:01;4.90;99.90
24085;DHT22;12268;52.110;5.548;2022-12-18T13:51:19;4.80;99.90
24085;DHT22;12268;52.110;5.548;2022-12-18T13:53:59;4.80;99.90
24085;DHT22;12268;52.110;5.548;2022-12-18T13:56:30;4.80;99.90
24085;DHT22;12268;52.110;5.548;2022-12-18T13:59:32;4.80;99.90
24085;DHT22;12268;52.110;5.548;2022-12-18T14:01:53;4.90;99.90
24085;DHT22;12268;52.110;5.548;2022-12-18T14:04:22;4.80;99.90
24085;DHT22;12268;52.110;5.548;2022-12-18T14:06:50;4.80;99.90
24085;DHT22;12268;52.110;5.548;2022-12-18T14:09:22;4.80;99.90
24085;DHT22;12268;52.110;5.548;2022-12-18T14:11:49;4.90;99.90
24085;DHT22;12268;52.110;5.548;2022-12-18T14:14:19;4.90;99.90
24085;DHT22;12268;52.110;5.548;2022-12-18T14:16:46;4.90;99.90
24085;DHT22;12268;52.110;5.548;2022-12-18T14:19:15;4.80;99.90
24085;DHT22;12268;52.110;5.548;2022-12-18T14:21:46;4.80;99.90
24085;DHT22;12268;52.110;5.548;2022-12-18T14:24:17;4.90;99.90
24085;DHT22;12268;52.110;5.548;2022-12-18T14:26:43;4.70;99.90
24085;DHT22;12268;52.110;5.548;2022-12-18T14:29:27;4.30;99.90
24085;DHT22;12268;52.110;5.548;2022-12-18T14:32:09;4.30;99.90
24085;DHT22;12268;52.110;5.548;2022-12-18T14:34:34;4.50;99.90
24085;DHT22;12268;52.110;5.548;2022-12-18T14:37:00;4.40;99.90
24085;DHT22;12268;52.110;5.548;2022-12-18T14:39:25;4.40;99.90
24085;DHT22;12268;52.110;5.548;2022-12-18T14:41:51;4.50;99.90
24085;DHT22;12268;52.110;5.548;2022-12-18T14:44:17;4.40;99.90
24085;DHT22;12268;52.110;5.548;2022-12-18T14:46:44;4.40;99.90
24085;DHT22;12268;52.110;5.548;2022-12-18T14:49:30;4.30;99.90
24085;DHT22;12268;52.110;5.548;2022-12-18T14:52:05;4.10;99.90
24085;DHT22;12268;52.110;5.548;2022-12-18T14:54:32;4.40;99.90
24085;DHT22;12268;52.110;5.548;2022-12-18T14:57:18;4.20;99.90
24085;DHT22;12268;52.110;5.548;2022-12-18T14:59:45;4.30;99.90
24085;DHT22;12268;52.110;5.548;2022-12-18T15:02:23;4.40;99.90
24085;DHT22;12268;52.110;5.548;2022-12-18T15:05:05;4.30;99.90
24085;DHT22;12268;52.110;5.548;2022-12-18T15:07:42;4.40;99.90
24085;DHT22;12268;52.110;5.548;2022-12-18T15:10:10;4.50;99.90
24085;DHT22;12268;52.110;5.548;2022-12-18T15:12:47;4.40;99.90
24085;DHT22;12268;52.110;5.548;2022-12-18T15:20:52;4.40;99.90
24085;DHT22;12268;52.110;5.548;2022-12-18T15:23:22;4.40;99.90
24085;DHT22;12268;52.110;5.548;2022-12-18T15:26:03;4.50;99.90
24085;DHT22;12268;52.110;5.548;2022-12-18T15:28:36;4.60;99.90
24085;DHT22;12268;52.110;5.548;2022-12-18T15:33:35;4.50;99.90
24085;DHT22;12268;52.110;5.548;2022-12-18T15:36:10;4.70;99.90
24085;DHT22;12268;52.110;5.548;2022-12-18T15:38:36;4.70;99.90
24085;DHT22;12268;52.110;5.548;2022-12-18T15:41:02;4.50;99.90
24085;DHT22;12268;52.110;5.548;2022-12-18T15:43:28;4.50;99.90
24085;DHT22;12268;52.110;5.548;2022-12-18T15:46:13;4.70;99.90
24085;DHT22;12268;52.110;5.548;2022-12-18T15:48:44;4.60;99.90
24085;DHT22;12268;52.110;5.548;2022-12-18T15:51:33;4.30;99.90
24085;DHT22;12268;52.110;5.548;2022-12-18T15:54:02;4.20;99.90
24085;DHT22;12268;52.110;5.548;2022-12-18T15:56:29;4.20;99.90
24085;DHT22;12268;52.110;5.548;2022-12-18T15:59:16;4.10;99.90
24085;DHT22;12268;52.110;5.548;2022-12-18T16:01:44;4.10;99.90
24085;DHT22;12268;52.110;5.548;2022-12-18T16:04:14;4.20;99.90
24085;DHT22;12268;52.110;5.548;2022-12-18T16:06:40;4.20;99.90
24085;DHT22;12268;52.110;5.548;2022-12-18T16:09:07;4.10;99.90
24085;DHT22;12268;52.110;5.548;2022-12-18T16:11:34;4.20;99.90
24085;DHT22;12268;52.110;5.548;2022-12-18T16:14:22;4.00;99.90
24085;DHT22;12268;52.110;5.548;2022-12-18T16:16:51;4.00;99.90
24085;DHT22;12268;52.110;5.548;2022-12-18T16:19:18;4.20;99.90
24085;DHT22;12268;52.110;5.548;2022-12-18T16:21:44;4.20;99.90
24085;DHT22;12268;52.110;5.548;2022-12-18T16:24:17;4.20;99.90
24085;DHT22;12268;52.110;5.548;2022-12-18T16:26:43;4.30;99.90
24085;DHT22;12268;52.110;5.548;2022-12-18T16:29:09;4.20;99.90
24085;DHT22;12268;52.110;5.548;2022-12-18T16:31:36;3.90;99.90
24085;DHT22;12268;52.110;5.548;2022-12-18T16:34:21;4.20;99.90
24085;DHT22;12268;52.110;5.548;2022-12-18T16:36:50;4.30;99.90
24085;DHT22;12268;52.110;5.548;2022-12-18T16:39:17;4.20;99.90
24085;DHT22;12268;52.110;5.548;2022-12-18T16:41:43;4.30;99.90
24085;DHT22;12268;52.110;5.548;2022-12-18T16:44:08;4.40;99.90
24085;DHT22;12268;52.110;5.548;2022-12-18T16:46:35;4.40;99.90
24085;DHT22;12268;52.110;5.548;2022-12-18T16:49:01;4.20;99.90
24085;DHT22;12268;52.110;5.548;2022-12-18T16:51:27;3.90;99.90
24085;DHT22;12268;52.110;5.548;2022-12-18T16:53:53;3.80;99.90
24085;DHT22;12268;52.110;5.548;2022-12-18T16:56:19;3.50;99.90
24085;DHT22;12268;52.110;5.548;2022-12-18T16:58:50;3.50;99.90
24085;DHT22;12268;52.110;5.548;2022-12-18T17:01:16;3.60;99.90
24085;DHT22;12268;52.110;5.548;2022-12-18T17:03:41;3.60;99.90
24085;DHT22;12268;52.110;5.548;2022-12-18T17:06:07;3.30;99.90
24085;DHT22;12268;52.110;5.548;2022-12-18T17:08:32;3.40;99.90
24085;DHT22;12268;52.110;5.548;2022-12-18T17:11:06;3.30;99.90
24085;DHT22;12268;52.110;5.548;2022-12-18T17:13:32;3.40;99.90
24085;DHT22;12268;52.110;5.548;2022-12-18T17:16:06;3.40;99.90
24085;DHT22;12268;52.110;5.548;2022-12-18T17:18:33;3.50;99.90
24085;DHT22;12268;52.110;5.548;2022-12-18T17:21:03;3.50;99.90
24085;DHT22;12268;52.110;5.548;2022-12-18T17:23:30;3.50;99.90
24085;DHT22;12268;52.110;5.548;2022-12-18T17:25:56;3.70;99.90
24085;DHT22;12268;52.110;5.548;2022-12-18T17:28:23;3.70;99.90